Howland, Ohio
Current Conditions -  °F | °C
As of 10:51 PM on Friday 19 Dec 2014 (Local Time) from KYNG Reporting Station
Overcast Overcast  
Wind Chill: 21°   Ceiling: 2200
Heat Index: 28°   Visibility: 10mi
Dew Point: 20°   Wind: 7mph
Humidity: 72%   Direction: 360°N
Pressure: 30.25"   Gusts: NA
Location:  41.234°N, 80.7496°W
Report Text: KYNG 200351Z 36006KT 10SM OVC022 M02/M07 A3025 RMK AO2 SLP258 T10221067
Loading
Personal Weather Stations






























Interactive Weather Map New forecast layout! Learn more

10-Day Weather Forecast

Advertisements
Track Severe Weather on mobile